createdAt,value
2023-04-02T00:02:20.817Z,12.23
2023-04-02T00:05:30.429Z,13.38
2023-04-02T00:08:00.283Z,14.65
2023-04-02T00:10:38.040Z,18.25
2023-04-02T00:13:10.424Z,19.67
2023-04-02T00:15:41.664Z,14.85
2023-04-02T00:18:10.707Z,14.65
2023-04-02T00:20:40.756Z,16.75
2023-04-02T00:23:07.170Z,20.20
2023-04-02T00:25:42.683Z,17.75
2023-04-02T00:28:13.874Z,19.60
2023-04-02T00:30:48.708Z,16.67
2023-04-02T00:33:33.380Z,17.33
2023-04-02T00:36:00.228Z,19.23
2023-04-02T00:38:30.774Z,19.13
2023-04-02T00:41:01.734Z,18.03
2023-04-02T00:43:32.015Z,16.88
2023-04-02T00:46:03.670Z,17.35
2023-04-02T00:48:32.784Z,19.05
2023-04-02T00:51:37.629Z,16.45
2023-04-02T00:54:06.842Z,16.52
2023-04-02T00:56:42.633Z,16.85
2023-04-02T00:59:19.696Z,17.52
2023-04-02T01:01:54.170Z,15.18
2023-04-02T01:04:36.343Z,15.85
2023-04-02T01:07:06.813Z,18.30
2023-04-02T01:09:42.801Z,15.77
2023-04-02T01:12:15.061Z,16.75
2023-04-02T01:15:09.738Z,19.05
2023-04-02T01:17:39.094Z,15.77
2023-04-02T01:20:37.794Z,20.75
2023-04-02T01:23:16.932Z,21.70
2023-04-02T01:25:52.226Z,16.05
2023-04-02T01:28:25.664Z,18.08
2023-04-02T01:30:55.892Z,19.75
2023-04-02T01:33:25.126Z,24.17
2023-04-02T01:35:59.566Z,17.10
2023-04-02T01:38:38.080Z,18.48
2023-04-02T01:41:33.865Z,19.88
2023-04-02T01:44:07.962Z,17.55
2023-04-02T01:46:38.373Z,17.23
2023-04-02T01:49:14.417Z,18.07
2023-04-02T01:51:44.688Z,19.00
2023-04-02T01:54:13.693Z,14.95
2023-04-02T01:56:42.396Z,17.30
2023-04-02T01:59:11.130Z,19.98
2023-04-02T02:01:49.157Z,15.13
2023-04-02T02:04:17.092Z,21.40
2023-04-02T02:06:44.211Z,19.63
2023-04-02T02:09:18.114Z,18.52
2023-04-02T02:11:44.563Z,21.13
2023-04-02T02:14:18.701Z,20.30
2023-04-02T02:16:46.978Z,23.10
2023-04-02T02:19:36.105Z,18.17
2023-04-02T02:22:27.563Z,17.40
2023-04-02T02:24:56.247Z,18.17
2023-04-02T02:27:22.699Z,17.45
2023-04-02T02:30:17.497Z,21.88
2023-04-02T02:32:52.819Z,20.17
2023-04-02T02:35:24.009Z,20.95
2023-04-02T02:37:57.862Z,21.55
2023-04-02T02:40:32.742Z,21.63
2023-04-02T02:43:04.302Z,18.88
2023-04-02T02:45:37.674Z,20.67
2023-04-02T02:48:12.412Z,20.73
2023-04-02T02:50:40.123Z,19.33
2023-04-02T02:53:17.434Z,20.55
2023-04-02T02:55:44.334Z,22.13
2023-04-02T02:58:15.987Z,18.33
2023-04-02T03:00:43.616Z,21.08
2023-04-02T03:03:16.992Z,18.17
2023-04-02T03:05:44.648Z,19.15
2023-04-02T03:08:19.196Z,25.42
2023-04-02T03:10:54.081Z,21.25
2023-04-02T03:13:27.143Z,18.65
2023-04-02T03:16:16.260Z,22.92
2023-04-02T03:19:23.860Z,23.75
2023-04-02T03:22:19.402Z,19.15
2023-04-02T03:24:51.962Z,21.95
2023-04-02T03:27:22.889Z,20.40
2023-04-02T03:30:15.213Z,19.80
2023-04-02T03:32:44.342Z,26.05
2023-04-02T03:35:22.182Z,17.83
2023-04-02T03:37:58.472Z,21.10
2023-04-02T03:40:29.401Z,20.77
2023-04-02T03:43:06.421Z,24.27
2023-04-02T03:45:41.041Z,19.80
2023-04-02T03:48:26.469Z,21.50
2023-04-02T03:51:01.120Z,18.98
2023-04-02T03:53:29.587Z,18.48
2023-04-02T03:55:57.255Z,19.27
2023-04-02T03:58:29.666Z,19.98
2023-04-02T04:01:24.227Z,22.55
2023-04-02T04:03:54.119Z,22.33
2023-04-02T04:06:43.642Z,19.52
2023-04-02T04:09:37.617Z,22.48
2023-04-02T04:12:24.488Z,20.55
2023-04-02T04:15:01.845Z,23.25
2023-04-02T04:17:51.260Z,22.83
2023-04-02T04:20:24.013Z,20.52
2023-04-02T04:22:55.636Z,19.17
2023-04-02T04:25:34.030Z,26.42
2023-04-02T04:28:26.500Z,23.92
2023-04-02T04:31:04.034Z,25.60
2023-04-02T04:33:41.771Z,25.85
2023-04-02T04:36:27.673Z,24.50
2023-04-02T04:38:59.326Z,25.90
2023-04-02T04:41:32.160Z,22.45
2023-04-02T04:43:58.487Z,27.23
2023-04-02T04:46:38.611Z,24.85
2023-04-02T04:49:27.829Z,26.27
2023-04-02T04:51:59.042Z,25.00
2023-04-02T04:54:27.535Z,32.97
2023-04-02T04:56:59.558Z,32.40
2023-04-02T04:59:32.271Z,32.50
2023-04-02T05:02:09.685Z,26.50
2023-04-02T05:04:40.229Z,25.63
2023-04-02T05:07:21.373Z,25.70
2023-04-02T05:10:07.731Z,31.90
2023-04-02T05:12:44.066Z,29.27
2023-04-02T05:15:32.371Z,27.73
2023-04-02T05:18:37.659Z,29.30
2023-04-02T05:21:07.147Z,25.60
2023-04-02T05:24:08.667Z,29.88
2023-04-02T05:26:42.005Z,24.40
2023-04-02T05:29:24.251Z,27.70
2023-04-02T05:32:06.751Z,31.60
2023-04-02T05:34:37.324Z,28.98
2023-04-02T05:37:07.098Z,29.00
2023-04-02T05:39:33.853Z,30.25
2023-04-02T05:42:14.524Z,29.63
2023-04-02T05:44:55.598Z,28.93
2023-04-02T05:47:29.945Z,33.08
2023-04-02T05:50:08.461Z,29.65
2023-04-02T05:52:43.104Z,30.02
2023-04-02T05:55:12.547Z,25.58
2023-04-02T05:58:01.316Z,32.83
2023-04-02T06:00:39.579Z,37.17
2023-04-02T06:03:24.033Z,32.72
2023-04-02T06:05:52.949Z,29.77
2023-04-02T06:08:35.368Z,28.48
2023-04-02T06:11:12.212Z,32.88
2023-04-02T06:13:39.082Z,34.33
2023-04-02T06:16:06.575Z,33.70
2023-04-02T06:18:36.134Z,32.53
2023-04-02T06:21:03.616Z,33.33
2023-04-02T06:23:39.910Z,36.45
2023-04-02T06:26:38.389Z,39.88
2023-04-02T06:29:38.187Z,35.60
2023-04-02T06:32:09.814Z,38.75
2023-04-02T06:34:39.060Z,34.28
2023-04-02T06:37:17.358Z,35.20
2023-04-02T06:39:43.887Z,38.00
2023-04-02T06:42:16.601Z,51.05
2023-04-02T06:44:43.453Z,41.05
2023-04-02T06:47:21.797Z,52.00
2023-04-02T06:49:57.124Z,47.10
2023-04-02T06:52:29.197Z,40.85
2023-04-02T06:54:55.672Z,38.90
2023-04-02T06:57:22.240Z,38.80
2023-04-02T06:59:48.866Z,41.00
2023-04-02T07:02:21.240Z,32.88
2023-04-02T07:04:47.976Z,38.50
2023-04-02T07:07:14.387Z,38.95
2023-04-02T07:09:42.297Z,36.30
2023-04-02T07:12:15.081Z,34.40
2023-04-02T07:14:41.483Z,42.00
2023-04-02T07:17:16.033Z,38.63
2023-04-02T07:19:44.217Z,40.58
2023-04-02T07:22:10.721Z,41.05
2023-04-02T07:24:37.488Z,39.55
2023-04-02T07:27:04.017Z,42.33
2023-04-02T07:29:30.443Z,41.30
2023-04-02T07:31:56.872Z,35.80
2023-04-02T07:34:23.304Z,41.40
2023-04-02T07:36:49.681Z,35.20
2023-04-02T07:39:16.544Z,36.90
2023-04-02T07:42:00.843Z,38.42
2023-04-02T07:44:28.684Z,41.75
2023-04-02T07:46:55.636Z,36.28
2023-04-02T07:49:22.166Z,47.53
2023-04-02T07:51:48.649Z,34.72
2023-04-02T07:54:16.394Z,40.85
2023-04-02T07:56:42.795Z,40.28
2023-04-02T07:59:09.469Z,40.40
2023-04-02T08:01:36.593Z,37.90
2023-04-02T08:04:04.855Z,31.92
2023-04-02T08:06:31.632Z,26.15
2023-04-02T08:08:58.670Z,24.70
2023-04-02T08:11:25.103Z,28.08
2023-04-02T08:13:52.110Z,27.20
2023-04-02T08:16:19.340Z,26.55
2023-04-02T08:18:47.608Z,30.90
2023-04-02T08:21:16.290Z,30.00
2023-04-02T08:23:43.515Z,25.88
2023-04-02T08:26:23.505Z,30.50
2023-04-02T08:28:51.381Z,24.27
2023-04-02T08:31:18.047Z,24.45
2023-04-02T08:33:44.836Z,25.50
2023-04-02T08:36:27.488Z,27.27
2023-04-02T08:38:54.599Z,23.30
2023-04-02T08:41:32.482Z,23.23
2023-04-02T08:44:14.757Z,29.35
2023-04-02T08:47:01.318Z,22.73
2023-04-02T08:49:42.961Z,25.80
2023-04-02T08:52:25.773Z,26.27
2023-04-02T08:54:53.688Z,24.90
2023-04-02T08:58:09.964Z,28.33
2023-04-02T09:00:42.683Z,30.08
2023-04-02T09:03:19.688Z,25.50
2023-04-02T09:05:47.750Z,26.60
2023-04-02T09:08:19.163Z,25.08
2023-04-02T09:10:53.331Z,28.38
2023-04-02T09:13:29.160Z,22.92
2023-04-02T09:16:11.189Z,26.38
2023-04-02T09:18:38.842Z,45.08
2023-04-02T09:21:46.654Z,38.13
2023-04-02T09:24:13.374Z,30.80
2023-04-02T09:26:40.233Z,25.98
2023-04-02T09:29:12.499Z,28.92
2023-04-02T09:31:43.281Z,28.58
2023-04-02T09:34:35.536Z,30.15
2023-04-02T09:37:13.809Z,29.02
2023-04-02T09:39:41.017Z,28.55
2023-04-02T09:42:27.246Z,29.85
2023-04-02T09:44:53.752Z,25.65
2023-04-02T09:47:28.699Z,23.13
2023-04-02T09:49:55.843Z,25.90
2023-04-02T09:52:30.037Z,25.67
2023-04-02T09:55:24.111Z,29.65
2023-04-02T09:57:51.968Z,21.52
2023-04-02T10:00:41.589Z,23.33
2023-04-02T10:03:29.844Z,22.27
2023-04-02T10:06:12.250Z,20.38
2023-04-02T10:08:41.499Z,19.98
2023-04-02T10:11:22.987Z,22.42
2023-04-02T10:14:21.013Z,19.98
2023-04-02T10:17:23.338Z,19.25
2023-04-02T10:20:02.820Z,19.65
2023-04-02T10:22:29.637Z,21.20
2023-04-02T10:24:58.750Z,21.73
2023-04-02T10:27:57.532Z,25.02
2023-04-02T10:30:27.175Z,18.77
2023-04-02T10:33:06.065Z,24.05
2023-04-02T10:35:58.957Z,19.73
2023-04-02T10:39:04.880Z,22.85
2023-04-02T10:41:39.039Z,21.88
2023-04-02T10:44:36.740Z,20.45
2023-04-02T10:47:06.069Z,21.00
2023-04-02T10:49:48.788Z,17.80
2023-04-02T10:52:21.625Z,19.92
2023-04-02T10:54:51.210Z,24.25
2023-04-02T10:57:36.248Z,19.42
2023-04-02T11:00:12.544Z,15.40
2023-04-02T11:02:51.309Z,21.00
2023-04-02T11:05:20.835Z,23.90
2023-04-02T11:07:56.789Z,16.38
2023-04-02T11:10:23.777Z,16.45
2023-04-02T11:12:56.296Z,18.60
2023-04-02T11:15:23.505Z,18.85
2023-04-02T11:17:50.503Z,17.73
2023-04-02T11:20:47.723Z,15.50
2023-04-02T11:23:18.743Z,13.43
2023-04-02T11:25:46.380Z,16.67
2023-04-02T11:28:33.494Z,17.60
2023-04-02T11:31:00.225Z,16.27
2023-04-02T11:33:38.635Z,17.02
2023-04-02T11:36:46.903Z,15.40
2023-04-02T11:39:17.266Z,9.00
2023-04-02T11:42:19.473Z,9.70
2023-04-02T11:44:45.932Z,9.23
2023-04-02T11:47:16.568Z,9.10
2023-04-02T11:49:55.740Z,9.20
2023-04-02T11:52:28.679Z,8.77
2023-04-02T11:55:29.674Z,8.35
2023-04-02T11:58:02.272Z,5.75
2023-04-02T12:00:48.385Z,5.95
2023-04-02T12:03:14.812Z,7.70
2023-04-02T12:05:54.598Z,8.85
2023-04-02T12:08:28.880Z,5.47
2023-04-02T12:11:00.664Z,5.30
2023-04-02T12:13:47.998Z,7.10
2023-04-02T12:16:14.643Z,5.75
2023-04-02T12:18:47.007Z,7.32
2023-04-02T12:21:18.988Z,4.53
2023-04-02T12:23:47.708Z,5.95
2023-04-02T12:26:37.147Z,6.72
2023-04-02T12:29:15.894Z,6.25
2023-04-02T12:31:47.843Z,6.72
2023-04-02T12:34:16.959Z,5.15
2023-04-02T12:37:04.910Z,7.05
2023-04-02T12:39:33.585Z,5.57
2023-04-02T12:42:00.272Z,5.60
2023-04-02T12:44:29.987Z,5.03
2023-04-02T12:46:58.378Z,6.68
2023-04-02T12:49:46.606Z,5.20
2023-04-02T12:52:16.656Z,5.18
2023-04-02T12:54:52.793Z,5.10
2023-04-02T12:57:40.229Z,3.90
2023-04-02T13:00:22.324Z,4.18
2023-04-02T13:03:01.668Z,2.30
2023-04-02T13:05:42.708Z,3.83
2023-04-02T13:08:41.540Z,3.70
2023-04-02T13:11:08.865Z,2.65
2023-04-02T13:13:40.294Z,4.38
2023-04-02T13:16:09.920Z,4.78
2023-04-02T13:18:38.144Z,3.00
2023-04-02T13:21:25.767Z,4.10
2023-04-02T13:23:54.083Z,4.57
2023-04-02T13:26:26.517Z,3.45
2023-04-02T13:29:02.359Z,4.72
2023-04-02T13:31:30.901Z,7.75
2023-04-02T13:33:58.789Z,4.03
2023-04-02T13:36:26.050Z,3.13
2023-04-02T13:38:52.708Z,6.50
2023-04-02T13:41:21.446Z,3.72
2023-04-02T13:43:50.007Z,4.65
2023-04-02T13:46:22.125Z,6.43
2023-04-02T13:48:53.175Z,5.28
2023-04-02T13:53:49.764Z,8.07
2023-04-02T13:56:16.613Z,10.98
2023-04-02T13:58:43.183Z,5.80
2023-04-02T14:01:10.129Z,2.78
2023-04-02T14:03:37.957Z,4.53
2023-04-02T14:06:19.045Z,3.45
2023-04-02T14:11:42.633Z,3.00
2023-04-02T14:14:21.458Z,2.08
2023-04-02T14:17:14.880Z,3.65
2023-04-02T14:20:12.447Z,2.05
2023-04-02T14:23:00.885Z,3.88
2023-04-02T14:26:03.643Z,2.28
2023-04-02T14:28:49.248Z,1.90
2023-04-02T14:31:31.557Z,2.40
2023-04-02T14:34:39.331Z,2.75
2023-04-02T14:37:08.335Z,3.58
2023-04-02T14:39:47.230Z,4.90
2023-04-02T14:42:22.421Z,4.00
2023-04-02T14:45:01.207Z,3.85
2023-04-02T14:48:24.794Z,4.20
2023-04-02T14:50:55.758Z,4.45
2023-04-02T14:53:39.199Z,5.50
2023-04-02T14:56:08.131Z,4.28
2023-04-02T14:58:38.482Z,6.82
2023-04-02T15:01:21.714Z,5.05
2023-04-02T15:03:53.100Z,6.18
2023-04-02T15:06:25.620Z,4.35
2023-04-02T15:09:09.599Z,7.47
2023-04-02T15:11:40.486Z,4.13
2023-04-02T15:14:30.017Z,4.40
2023-04-02T15:16:56.522Z,4.97
2023-04-02T15:19:22.946Z,3.47
2023-04-02T15:22:19.215Z,3.75
2023-04-02T15:24:54.017Z,4.35
2023-04-02T15:27:35.699Z,4.32
2023-04-02T15:30:25.503Z,7.20
2023-04-02T15:32:55.944Z,4.05
2023-04-02T15:35:43.955Z,5.55
2023-04-02T15:38:23.278Z,6.40
2023-04-02T15:41:07.738Z,4.43
2023-04-02T15:43:37.260Z,4.20
2023-04-02T15:46:27.216Z,3.67
2023-04-02T15:48:56.449Z,4.72
2023-04-02T15:51:26.464Z,4.00
2023-04-02T15:53:55.884Z,6.13
2023-04-02T15:57:10.127Z,4.82
2023-04-02T15:59:36.475Z,4.10
2023-04-02T16:02:25.861Z,5.70
2023-04-02T16:05:26.141Z,3.55
2023-04-02T16:07:55.620Z,6.95
2023-04-02T16:10:37.991Z,2.20
2023-04-02T16:13:23.150Z,2.15
2023-04-02T16:16:03.426Z,4.63
2023-04-02T16:18:40.446Z,2.80
2023-04-02T16:21:07.640Z,7.15
2023-04-02T16:23:38.495Z,9.18
2023-04-02T16:26:21.889Z,4.57
2023-04-02T16:29:14.904Z,3.97
2023-04-02T16:32:04.551Z,3.60
2023-04-02T16:35:01.957Z,6.22
2023-04-02T16:37:49.358Z,2.00
2023-04-02T16:40:34.768Z,2.67
2023-04-02T16:43:11.317Z,2.72
2023-04-02T16:45:37.718Z,2.97
2023-04-02T16:48:19.457Z,2.42
2023-04-02T16:51:01.970Z,1.90
2023-04-02T16:54:01.018Z,2.33
2023-04-02T16:56:47.648Z,2.17
2023-04-02T16:59:27.265Z,3.60
2023-04-02T17:02:15.750Z,3.80
2023-04-02T17:04:57.285Z,3.10
2023-04-02T17:07:30.242Z,2.58
2023-04-02T17:10:11.405Z,4.18
2023-04-02T17:15:28.577Z,4.00
2023-04-02T17:18:01.646Z,3.47
2023-04-02T17:20:28.901Z,3.92
2023-04-02T17:22:56.108Z,2.88
2023-04-02T17:25:30.522Z,7.40
2023-04-02T17:27:57.173Z,5.35
2023-04-02T17:30:44.322Z,5.78
2023-04-02T17:33:16.195Z,5.15
2023-04-02T17:35:49.297Z,12.32
2023-04-02T17:38:39.657Z,24.85
2023-04-02T17:41:21.126Z,66.28
2023-04-02T17:44:03.125Z,23.40
2023-04-02T17:46:58.846Z,17.88
2023-04-02T17:49:39.846Z,14.25
2023-04-02T17:52:17.962Z,9.63
2023-04-02T17:55:02.508Z,7.30
2023-04-02T17:57:52.450Z,4.13
2023-04-02T18:00:45.552Z,7.75
2023-04-02T18:03:36.211Z,3.03
2023-04-02T18:06:21.026Z,4.82
2023-04-02T18:09:11.767Z,6.32
2023-04-02T18:11:53.365Z,4.82
2023-04-02T18:14:38.490Z,5.60
2023-04-02T18:17:13.967Z,6.40
2023-04-02T18:19:53.935Z,7.03
2023-04-02T18:22:37.425Z,6.30
2023-04-02T18:25:39.813Z,6.32
2023-04-02T18:28:30.561Z,3.97
2023-04-02T18:31:36.055Z,3.90
2023-04-02T18:34:29.187Z,4.40
2023-04-02T18:37:28.532Z,5.20
2023-04-02T18:40:22.759Z,7.90
2023-04-02T18:42:55.348Z,4.25
2023-04-02T18:45:34.501Z,6.07
2023-04-02T18:48:28.881Z,5.13
2023-04-02T18:50:55.444Z,2.70
2023-04-02T18:53:25.335Z,8.23
2023-04-02T18:56:03.879Z,5.35
2023-04-02T18:58:49.413Z,4.82
2023-04-02T19:01:21.264Z,3.83
2023-04-02T19:03:53.244Z,7.65
2023-04-02T19:06:28.685Z,4.63
2023-04-02T19:09:00.834Z,5.30
2023-04-02T19:11:31.819Z,4.80
2023-04-02T19:14:07.172Z,6.90
2023-04-02T19:17:02.010Z,4.63
2023-04-02T19:19:35.764Z,4.32
2023-04-02T19:22:26.106Z,6.47
2023-04-02T19:25:20.660Z,3.60
2023-04-02T19:28:05.567Z,6.90
2023-04-02T19:30:47.232Z,4.13
2023-04-02T19:33:45.242Z,6.45
2023-04-02T19:36:42.112Z,3.55
2023-04-02T19:39:32.998Z,8.95
2023-04-02T19:42:18.091Z,5.10
2023-04-02T19:44:48.409Z,8.77
2023-04-02T19:47:17.156Z,5.27
2023-04-02T19:49:44.171Z,5.90
2023-04-02T19:52:10.663Z,10.75
2023-04-02T19:54:38.464Z,8.75
2023-04-02T19:57:05.923Z,6.93
2023-04-02T19:59:32.504Z,5.00
2023-04-02T20:01:59.037Z,5.68
2023-04-02T20:04:25.619Z,6.00
2023-04-02T20:06:52.273Z,11.65
2023-04-02T20:09:18.711Z,7.20
2023-04-02T20:11:45.491Z,7.95
2023-04-02T20:14:11.948Z,7.68
2023-04-02T20:16:38.781Z,5.60
2023-04-02T20:19:05.401Z,7.53
2023-04-02T20:21:37.938Z,6.32
2023-04-02T20:24:06.703Z,6.18
2023-04-02T20:26:34.763Z,7.07
2023-04-02T20:29:01.514Z,8.35
2023-04-02T20:31:28.132Z,7.18
2023-04-02T20:33:56.551Z,8.93
2023-04-02T20:36:24.635Z,4.55
2023-04-02T20:38:51.735Z,4.50
2023-04-02T20:41:19.486Z,6.35
2023-04-02T20:43:46.007Z,5.03
2023-04-02T20:46:13.049Z,4.13
2023-04-02T20:48:40.627Z,7.53
2023-04-02T20:51:09.354Z,12.77
2023-04-02T20:53:37.194Z,5.60
2023-04-02T20:56:11.997Z,12.43
2023-04-02T20:58:39.769Z,8.10
2023-04-02T21:01:16.777Z,10.98
2023-04-02T21:03:46.289Z,5.00
2023-04-02T21:06:14.920Z,9.60
2023-04-02T21:08:41.648Z,5.72
2023-04-02T21:11:09.121Z,11.00
2023-04-02T21:13:36.991Z,8.93
2023-04-02T21:16:05.780Z,8.77
2023-04-02T21:18:32.248Z,10.73
2023-04-02T21:21:03.970Z,26.58
2023-04-02T21:23:31.547Z,16.30
2023-04-02T21:26:00.220Z,9.68
2023-04-02T21:28:27.450Z,9.98
2023-04-02T21:31:20.526Z,4.47
2023-04-02T21:33:49.822Z,7.53
2023-04-02T21:36:18.346Z,18.33
2023-04-02T21:38:46.995Z,8.88
2023-04-02T21:41:24.650Z,11.93
2023-04-02T21:43:51.323Z,10.90
2023-04-02T21:46:21.144Z,11.25
2023-04-02T21:48:48.891Z,11.50
2023-04-02T21:51:26.879Z,9.85
2023-04-02T21:53:54.211Z,8.23
2023-04-02T21:56:27.664Z,8.55
2023-04-02T21:58:55.268Z,14.40
2023-04-02T22:01:27.640Z,8.23
2023-04-02T22:03:56.287Z,9.07
2023-04-02T22:06:24.859Z,7.47
2023-04-02T22:09:00.290Z,8.68
2023-04-02T22:11:30.422Z,9.98
2023-04-02T22:13:57.747Z,8.73
2023-04-02T22:16:27.224Z,8.32
2023-04-02T22:18:56.186Z,7.40
2023-04-02T22:21:26.539Z,5.53
2023-04-02T22:23:53.072Z,7.40
2023-04-02T22:26:21.395Z,8.50
2023-04-02T22:28:47.835Z,7.75
2023-04-02T22:31:20.514Z,19.38
2023-04-02T22:33:47.778Z,8.80
2023-04-02T22:36:15.893Z,8.50
2023-04-02T22:38:42.609Z,8.40
2023-04-02T22:41:10.344Z,8.43
2023-04-02T22:43:37.705Z,8.05
2023-04-02T22:46:05.579Z,11.88
2023-04-02T22:48:32.345Z,5.45
2023-04-02T22:50:58.891Z,7.47
2023-04-02T22:53:25.794Z,7.70
2023-04-02T22:55:52.774Z,7.35
2023-04-02T22:58:20.771Z,7.43
2023-04-02T23:00:48.408Z,8.73
2023-04-02T23:03:14.834Z,11.63
2023-04-02T23:05:42.459Z,9.60
2023-04-02T23:08:09.091Z,5.20
2023-04-02T23:10:35.950Z,9.02
2023-04-02T23:13:02.594Z,7.60
2023-04-02T23:15:29.004Z,7.60
2023-04-02T23:17:55.528Z,5.68
2023-04-02T23:20:21.983Z,6.60
2023-04-02T23:22:48.394Z,6.03
2023-04-02T23:25:14.852Z,8.50
2023-04-02T23:27:41.779Z,7.07
2023-04-02T23:30:08.682Z,7.95
2023-04-02T23:32:35.440Z,5.15
2023-04-02T23:35:01.954Z,9.35
2023-04-02T23:37:28.380Z,6.70
2023-04-02T23:39:54.777Z,7.05
2023-04-02T23:42:21.241Z,8.20
2023-04-02T23:44:47.701Z,8.63
2023-04-02T23:47:14.103Z,11.35
2023-04-02T23:49:42.111Z,8.63
2023-04-02T23:52:08.507Z,6.82
2023-04-02T23:54:34.895Z,9.45
2023-04-02T23:57:01.385Z,10.55
2023-04-02T23:59:28.085Z,10.35
